sensor_id;sensor_type;location;lat;lon;timestamp;P1;durP1;ratioP1;P2;durP2;ratioP2
17850;SDS011;9051;51.548;14.348;2022-09-12T00:01:48;6.43;;;5.83;;
17850;SDS011;9051;51.548;14.348;2022-09-12T00:04:20;5.87;;;5.27;;
17850;SDS011;9051;51.548;14.348;2022-09-12T00:06:55;5.87;;;5.37;;
17850;SDS011;9051;51.548;14.348;2022-09-12T00:09:28;8.57;;;5.60;;
17850;SDS011;9051;51.548;14.348;2022-09-12T00:12:00;6.43;;;5.80;;
17850;SDS011;9051;51.548;14.348;2022-09-12T00:14:32;6.43;;;5.83;;
17850;SDS011;9051;51.548;14.348;2022-09-12T00:17:04;7.93;;;5.63;;
17850;SDS011;9051;51.548;14.348;2022-09-12T00:19:36;6.43;;;5.77;;
17850;SDS011;9051;51.548;14.348;2022-09-12T00:22:11;7.03;;;5.87;;
17850;SDS011;9051;51.548;14.348;2022-09-12T00:24:43;5.60;;;5.10;;
17850;SDS011;9051;51.548;14.348;2022-09-12T00:27:15;5.77;;;5.27;;
17850;SDS011;9051;51.548;14.348;2022-09-12T00:29:47;6.40;;;5.67;;
17850;SDS011;9051;51.548;14.348;2022-09-12T00:32:20;6.23;;;5.60;;
17850;SDS011;9051;51.548;14.348;2022-09-12T00:34:53;5.80;;;5.30;;
17850;SDS011;9051;51.548;14.348;2022-09-12T00:37:26;5.60;;;5.10;;
17850;SDS011;9051;51.548;14.348;2022-09-12T00:39:58;6.17;;;5.57;;
17850;SDS011;9051;51.548;14.348;2022-09-12T00:42:30;6.87;;;5.60;;
17850;SDS011;9051;51.548;14.348;2022-09-12T00:45:03;6.43;;;5.67;;
17850;SDS011;9051;51.548;14.348;2022-09-12T00:47:37;6.30;;;5.70;;
17850;SDS011;9051;51.548;14.348;2022-09-12T00:50:10;6.60;;;6.00;;
17850;SDS011;9051;51.548;14.348;2022-09-12T00:52:46;5.60;;;5.13;;
17850;SDS011;9051;51.548;14.348;2022-09-12T00:55:23;6.23;;;5.63;;
17850;SDS011;9051;51.548;14.348;2022-09-12T00:57:59;8.07;;;5.50;;
17850;SDS011;9051;51.548;14.348;2022-09-12T01:00:34;6.47;;;5.73;;
17850;SDS011;9051;51.548;14.348;2022-09-12T01:03:07;6.20;;;5.70;;
17850;SDS011;9051;51.548;14.348;2022-09-12T01:05:45;7.87;;;5.67;;
17850;SDS011;9051;51.548;14.348;2022-09-12T01:08:24;7.30;;;5.77;;
17850;SDS011;9051;51.548;14.348;2022-09-12T01:10:57;6.13;;;5.63;;
17850;SDS011;9051;51.548;14.348;2022-09-12T01:13:29;6.43;;;5.77;;
17850;SDS011;9051;51.548;14.348;2022-09-12T01:16:02;6.07;;;5.53;;
17850;SDS011;9051;51.548;14.348;2022-09-12T01:18:39;6.10;;;5.50;;
17850;SDS011;9051;51.548;14.348;2022-09-12T01:21:23;5.90;;;5.40;;
17850;SDS011;9051;51.548;14.348;2022-09-12T01:24:20;6.77;;;5.90;;
17850;SDS011;9051;51.548;14.348;2022-09-12T01:27:19;6.03;;;5.53;;
17850;SDS011;9051;51.548;14.348;2022-09-12T01:30:24;6.00;;;5.40;;
17850;SDS011;9051;51.548;14.348;2022-09-12T01:33:05;5.30;;;4.80;;
17850;SDS011;9051;51.548;14.348;2022-09-12T01:35:47;4.77;;;4.30;;
17850;SDS011;9051;51.548;14.348;2022-09-12T01:38:30;5.37;;;4.60;;
17850;SDS011;9051;51.548;14.348;2022-09-12T01:41:09;5.20;;;4.70;;
17850;SDS011;9051;51.548;14.348;2022-09-12T01:43:46;5.73;;;5.00;;
17850;SDS011;9051;51.548;14.348;2022-09-12T01:46:26;6.03;;;5.43;;
17850;SDS011;9051;51.548;14.348;2022-09-12T01:49:05;7.33;;;6.13;;
17850;SDS011;9051;51.548;14.348;2022-09-12T01:51:44;6.97;;;6.03;;
17850;SDS011;9051;51.548;14.348;2022-09-12T01:54:28;7.17;;;6.47;;
17850;SDS011;9051;51.548;14.348;2022-09-12T01:57:07;7.63;;;6.33;;
17850;SDS011;9051;51.548;14.348;2022-09-12T01:59:43;6.77;;;6.07;;
17850;SDS011;9051;51.548;14.348;2022-09-12T02:02:20;6.77;;;6.07;;
17850;SDS011;9051;51.548;14.348;2022-09-12T02:04:59;8.60;;;6.30;;
17850;SDS011;9051;51.548;14.348;2022-09-12T02:07:36;6.80;;;6.17;;
17850;SDS011;9051;51.548;14.348;2022-09-12T02:10:11;7.47;;;6.43;;
17850;SDS011;9051;51.548;14.348;2022-09-12T02:12:45;7.37;;;6.07;;
17850;SDS011;9051;51.548;14.348;2022-09-12T02:15:22;8.53;;;6.50;;
17850;SDS011;9051;51.548;14.348;2022-09-12T02:18:01;7.20;;;6.03;;
17850;SDS011;9051;51.548;14.348;2022-09-12T02:20:36;7.67;;;6.80;;
17850;SDS011;9051;51.548;14.348;2022-09-12T02:23:11;8.13;;;7.33;;
17850;SDS011;9051;51.548;14.348;2022-09-12T02:25:47;7.10;;;6.40;;
17850;SDS011;9051;51.548;14.348;2022-09-12T02:28:23;7.63;;;6.73;;
17850;SDS011;9051;51.548;14.348;2022-09-12T02:30:58;7.10;;;6.40;;
17850;SDS011;9051;51.548;14.348;2022-09-12T02:33:43;7.47;;;6.70;;
17850;SDS011;9051;51.548;14.348;2022-09-12T02:36:21;7.67;;;6.67;;
17850;SDS011;9051;51.548;14.348;2022-09-12T02:39:02;8.73;;;6.70;;
17850;SDS011;9051;51.548;14.348;2022-09-12T02:41:35;7.80;;;7.00;;
17850;SDS011;9051;51.548;14.348;2022-09-12T02:44:08;8.97;;;7.70;;
17850;SDS011;9051;51.548;14.348;2022-09-12T02:46:41;9.00;;;7.50;;
17850;SDS011;9051;51.548;14.348;2022-09-12T02:49:20;8.73;;;7.83;;
17850;SDS011;9051;51.548;14.348;2022-09-12T02:51:53;9.07;;;7.73;;
17850;SDS011;9051;51.548;14.348;2022-09-12T02:54:25;8.77;;;7.87;;
17850;SDS011;9051;51.548;14.348;2022-09-12T02:56:58;8.03;;;7.10;;
17850;SDS011;9051;51.548;14.348;2022-09-12T02:59:30;8.07;;;7.27;;
17850;SDS011;9051;51.548;14.348;2022-09-12T03:02:04;8.50;;;7.20;;
17850;SDS011;9051;51.548;14.348;2022-09-12T03:08:03;9.50;;;8.03;;
17850;SDS011;9051;51.548;14.348;2022-09-12T03:10:49;10.10;;;8.07;;
17850;SDS011;9051;51.548;14.348;2022-09-12T03:13:39;9.07;;;7.53;;
17850;SDS011;9051;51.548;14.348;2022-09-12T03:16:25;10.47;;;8.70;;
17850;SDS011;9051;51.548;14.348;2022-09-12T03:19:05;13.20;;;8.77;;
17850;SDS011;9051;51.548;14.348;2022-09-12T03:21:49;15.13;;;10.83;;
17850;SDS011;9051;51.548;14.348;2022-09-12T03:24:31;15.63;;;9.27;;
17850;SDS011;9051;51.548;14.348;2022-09-12T03:27:07;17.33;;;10.57;;
17850;SDS011;9051;51.548;14.348;2022-09-12T03:29:44;15.93;;;10.50;;
17850;SDS011;9051;51.548;14.348;2022-09-12T03:32:18;15.03;;;10.67;;
17850;SDS011;9051;51.548;14.348;2022-09-12T03:34:50;15.67;;;12.00;;
17850;SDS011;9051;51.548;14.348;2022-09-12T03:37:22;19.93;;;14.00;;
17850;SDS011;9051;51.548;14.348;2022-09-12T03:39:55;21.03;;;12.83;;
17850;SDS011;9051;51.548;14.348;2022-09-12T03:42:27;22.57;;;13.83;;
17850;SDS011;9051;51.548;14.348;2022-09-12T03:45:00;29.10;;;14.50;;
17850;SDS011;9051;51.548;14.348;2022-09-12T03:47:32;30.07;;;14.10;;
17850;SDS011;9051;51.548;14.348;2022-09-12T03:50:04;20.37;;;13.77;;
17850;SDS011;9051;51.548;14.348;2022-09-12T03:52:37;28.97;;;13.93;;
17850;SDS011;9051;51.548;14.348;2022-09-12T03:55:10;25.33;;;14.93;;
17850;SDS011;9051;51.548;14.348;2022-09-12T03:57:43;27.73;;;15.00;;
17850;SDS011;9051;51.548;14.348;2022-09-12T04:00:15;23.90;;;14.33;;
17850;SDS011;9051;51.548;14.348;2022-09-12T04:02:47;23.07;;;13.53;;
17850;SDS011;9051;51.548;14.348;2022-09-12T04:05:23;17.67;;;12.87;;
17850;SDS011;9051;51.548;14.348;2022-09-12T04:07:55;28.53;;;13.37;;
17850;SDS011;9051;51.548;14.348;2022-09-12T04:10:30;16.50;;;12.30;;
17850;SDS011;9051;51.548;14.348;2022-09-12T04:13:02;17.90;;;11.93;;
17850;SDS011;9051;51.548;14.348;2022-09-12T04:15:34;15.73;;;12.30;;
17850;SDS011;9051;51.548;14.348;2022-09-12T04:18:06;18.47;;;12.67;;
17850;SDS011;9051;51.548;14.348;2022-09-12T04:20:38;14.20;;;11.83;;
17850;SDS011;9051;51.548;14.348;2022-09-12T04:23:10;12.73;;;11.33;;
17850;SDS011;9051;51.548;14.348;2022-09-12T04:25:44;13.93;;;12.27;;
17850;SDS011;9051;51.548;14.348;2022-09-12T04:28:24;14.57;;;12.70;;
17850;SDS011;9051;51.548;14.348;2022-09-12T04:31:00;14.90;;;13.03;;
17850;SDS011;9051;51.548;14.348;2022-09-12T04:33:33;14.67;;;12.67;;
17850;SDS011;9051;51.548;14.348;2022-09-12T04:36:06;14.60;;;13.00;;
17850;SDS011;9051;51.548;14.348;2022-09-12T04:38:39;14.30;;;12.77;;
17850;SDS011;9051;51.548;14.348;2022-09-12T04:41:14;15.07;;;12.50;;
17850;SDS011;9051;51.548;14.348;2022-09-12T04:43:50;14.30;;;12.80;;
17850;SDS011;9051;51.548;14.348;2022-09-12T04:46:24;14.60;;;13.03;;
17850;SDS011;9051;51.548;14.348;2022-09-12T04:48:57;16.03;;;12.90;;
17850;SDS011;9051;51.548;14.348;2022-09-12T04:51:29;17.80;;;14.50;;
17850;SDS011;9051;51.548;14.348;2022-09-12T04:54:05;15.20;;;12.97;;
17850;SDS011;9051;51.548;14.348;2022-09-12T04:56:40;16.80;;;13.67;;
17850;SDS011;9051;51.548;14.348;2022-09-12T04:59:13;16.10;;;13.07;;
17850;SDS011;9051;51.548;14.348;2022-09-12T05:01:46;14.77;;;12.90;;
17850;SDS011;9051;51.548;14.348;2022-09-12T05:04:18;14.47;;;12.87;;
17850;SDS011;9051;51.548;14.348;2022-09-12T05:06:50;15.57;;;12.60;;
17850;SDS011;9051;51.548;14.348;2022-09-12T05:09:22;17.43;;;13.77;;
17850;SDS011;9051;51.548;14.348;2022-09-12T05:11:55;14.77;;;12.83;;
17850;SDS011;9051;51.548;14.348;2022-09-12T05:14:28;15.37;;;13.17;;
17850;SDS011;9051;51.548;14.348;2022-09-12T05:17:02;15.07;;;13.00;;
17850;SDS011;9051;51.548;14.348;2022-09-12T05:19:35;14.97;;;12.03;;
17850;SDS011;9051;51.548;14.348;2022-09-12T05:22:08;17.67;;;12.40;;
17850;SDS011;9051;51.548;14.348;2022-09-12T05:24:40;13.30;;;11.90;;
17850;SDS011;9051;51.548;14.348;2022-09-12T05:27:15;14.00;;;12.37;;
17850;SDS011;9051;51.548;14.348;2022-09-12T05:29:49;14.03;;;11.93;;
17850;SDS011;9051;51.548;14.348;2022-09-12T05:32:22;14.27;;;11.80;;
17850;SDS011;9051;51.548;14.348;2022-09-12T05:34:53;15.53;;;12.93;;
17850;SDS011;9051;51.548;14.348;2022-09-12T05:37:26;13.70;;;12.10;;
17850;SDS011;9051;51.548;14.348;2022-09-12T05:39:58;12.83;;;11.20;;
17850;SDS011;9051;51.548;14.348;2022-09-12T05:42:31;12.77;;;11.47;;
17850;SDS011;9051;51.548;14.348;2022-09-12T05:45:04;14.70;;;12.13;;
17850;SDS011;9051;51.548;14.348;2022-09-12T05:47:36;14.10;;;12.17;;
17850;SDS011;9051;51.548;14.348;2022-09-12T05:50:08;13.30;;;11.93;;
17850;SDS011;9051;51.548;14.348;2022-09-12T05:52:41;14.63;;;12.93;;
17850;SDS011;9051;51.548;14.348;2022-09-12T05:55:13;15.77;;;13.07;;
17850;SDS011;9051;51.548;14.348;2022-09-12T05:57:47;14.63;;;13.10;;
17850;SDS011;9051;51.548;14.348;2022-09-12T06:00:19;14.67;;;13.17;;
17850;SDS011;9051;51.548;14.348;2022-09-12T06:02:52;16.00;;;14.17;;
17850;SDS011;9051;51.548;14.348;2022-09-12T06:05:24;17.20;;;14.77;;
17850;SDS011;9051;51.548;14.348;2022-09-12T06:07:55;17.40;;;14.07;;
17850;SDS011;9051;51.548;14.348;2022-09-12T06:10:28;17.33;;;14.67;;
17850;SDS011;9051;51.548;14.348;2022-09-12T06:13:01;17.87;;;14.80;;
17850;SDS011;9051;51.548;14.348;2022-09-12T06:15:33;17.17;;;14.97;;
17850;SDS011;9051;51.548;14.348;2022-09-12T06:18:06;17.63;;;15.70;;
17850;SDS011;9051;51.548;14.348;2022-09-12T06:20:39;19.37;;;16.60;;
17850;SDS011;9051;51.548;14.348;2022-09-12T06:23:11;18.00;;;14.93;;
17850;SDS011;9051;51.548;14.348;2022-09-12T06:25:47;17.93;;;14.90;;
17850;SDS011;9051;51.548;14.348;2022-09-12T06:28:21;18.57;;;15.63;;
17850;SDS011;9051;51.548;14.348;2022-09-12T06:30:59;18.40;;;16.07;;
17850;SDS011;9051;51.548;14.348;2022-09-12T06:33:34;19.57;;;16.23;;
17850;SDS011;9051;51.548;14.348;2022-09-12T06:36:07;17.87;;;15.53;;
17850;SDS011;9051;51.548;14.348;2022-09-12T06:38:41;18.53;;;16.17;;
17850;SDS011;9051;51.548;14.348;2022-09-12T06:41:15;18.87;;;16.20;;
17850;SDS011;9051;51.548;14.348;2022-09-12T06:43:48;19.17;;;17.03;;
17850;SDS011;9051;51.548;14.348;2022-09-12T06:46:21;17.93;;;15.63;;
17850;SDS011;9051;51.548;14.348;2022-09-12T06:48:54;19.37;;;16.60;;
17850;SDS011;9051;51.548;14.348;2022-09-12T06:51:27;17.67;;;15.70;;
17850;SDS011;9051;51.548;14.348;2022-09-12T06:53:59;17.53;;;15.63;;
17850;SDS011;9051;51.548;14.348;2022-09-12T06:56:32;18.03;;;15.53;;
17850;SDS011;9051;51.548;14.348;2022-09-12T06:59:06;20.20;;;16.87;;
17850;SDS011;9051;51.548;14.348;2022-09-12T07:01:39;19.07;;;16.50;;
17850;SDS011;9051;51.548;14.348;2022-09-12T07:04:11;18.23;;;16.23;;
17850;SDS011;9051;51.548;14.348;2022-09-12T07:06:44;18.97;;;16.90;;
17850;SDS011;9051;51.548;14.348;2022-09-12T07:09:17;19.80;;;17.17;;
17850;SDS011;9051;51.548;14.348;2022-09-12T07:11:49;18.97;;;16.97;;
17850;SDS011;9051;51.548;14.348;2022-09-12T07:14:22;19.23;;;16.67;;
17850;SDS011;9051;51.548;14.348;2022-09-12T07:16:55;18.60;;;16.60;;
17850;SDS011;9051;51.548;14.348;2022-09-12T07:19:27;19.23;;;16.20;;
17850;SDS011;9051;51.548;14.348;2022-09-12T07:21:58;19.73;;;17.07;;
17850;SDS011;9051;51.548;14.348;2022-09-12T07:24:30;18.10;;;16.20;;
17850;SDS011;9051;51.548;14.348;2022-09-12T07:27:06;19.60;;;17.53;;
17850;SDS011;9051;51.548;14.348;2022-09-12T07:29:40;17.77;;;15.73;;
17850;SDS011;9051;51.548;14.348;2022-09-12T07:32:13;20.17;;;17.33;;
17850;SDS011;9051;51.548;14.348;2022-09-12T07:34:55;17.57;;;15.77;;
17850;SDS011;9051;51.548;14.348;2022-09-12T07:37:28;17.77;;;15.77;;
17850;SDS011;9051;51.548;14.348;2022-09-12T07:40:01;13.77;;;12.37;;
17850;SDS011;9051;51.548;14.348;2022-09-12T07:42:33;14.90;;;13.40;;
17850;SDS011;9051;51.548;14.348;2022-09-12T07:45:08;15.23;;;13.43;;
17850;SDS011;9051;51.548;14.348;2022-09-12T07:47:42;14.13;;;12.00;;
17850;SDS011;9051;51.548;14.348;2022-09-12T07:50:14;11.57;;;10.37;;
17850;SDS011;9051;51.548;14.348;2022-09-12T07:52:46;12.17;;;11.07;;
17850;SDS011;9051;51.548;14.348;2022-09-12T07:55:18;11.40;;;10.27;;
17850;SDS011;9051;51.548;14.348;2022-09-12T07:57:50;10.60;;;9.33;;
17850;SDS011;9051;51.548;14.348;2022-09-12T08:00:23;10.63;;;9.60;;
17850;SDS011;9051;51.548;14.348;2022-09-12T08:02:56;10.07;;;9.07;;
17850;SDS011;9051;51.548;14.348;2022-09-12T08:05:30;10.13;;;9.03;;
17850;SDS011;9051;51.548;14.348;2022-09-12T08:08:02;8.40;;;7.53;;
17850;SDS011;9051;51.548;14.348;2022-09-12T08:10:34;8.43;;;7.53;;
17850;SDS011;9051;51.548;14.348;2022-09-12T08:13:06;8.40;;;6.80;;
17850;SDS011;9051;51.548;14.348;2022-09-12T08:15:40;8.40;;;7.60;;
17850;SDS011;9051;51.548;14.348;2022-09-12T08:18:12;6.70;;;6.10;;
17850;SDS011;9051;51.548;14.348;2022-09-12T08:20:44;6.37;;;5.87;;
17850;SDS011;9051;51.548;14.348;2022-09-12T08:23:17;5.00;;;4.57;;
17850;SDS011;9051;51.548;14.348;2022-09-12T08:25:50;5.27;;;4.53;;
17850;SDS011;9051;51.548;14.348;2022-09-12T08:28:26;4.53;;;4.13;;
17850;SDS011;9051;51.548;14.348;2022-09-12T08:31:00;4.43;;;3.60;;
17850;SDS011;9051;51.548;14.348;2022-09-12T08:33:32;3.83;;;3.53;;
17850;SDS011;9051;51.548;14.348;2022-09-12T08:36:05;3.73;;;3.40;;
17850;SDS011;9051;51.548;14.348;2022-09-12T08:38:40;3.30;;;2.60;;
17850;SDS011;9051;51.548;14.348;2022-09-12T08:41:17;5.60;;;2.63;;
17850;SDS011;9051;51.548;14.348;2022-09-12T08:43:57;3.10;;;2.80;;
17850;SDS011;9051;51.548;14.348;2022-09-12T08:46:53;6.10;;;3.23;;
17850;SDS011;9051;51.548;14.348;2022-09-12T08:49:41;3.50;;;3.20;;
17850;SDS011;9051;51.548;14.348;2022-09-12T08:52:22;3.13;;;2.83;;
17850;SDS011;9051;51.548;14.348;2022-09-12T08:54:57;2.60;;;2.40;;
17850;SDS011;9051;51.548;14.348;2022-09-12T08:57:31;3.00;;;2.53;;
17850;SDS011;9051;51.548;14.348;2022-09-12T09:00:05;2.60;;;2.40;;
17850;SDS011;9051;51.548;14.348;2022-09-12T09:02:48;2.70;;;2.50;;
17850;SDS011;9051;51.548;14.348;2022-09-12T09:05:41;4.07;;;2.67;;
17850;SDS011;9051;51.548;14.348;2022-09-12T09:08:32;2.80;;;2.60;;
17850;SDS011;9051;51.548;14.348;2022-09-12T09:11:22;2.80;;;2.60;;
17850;SDS011;9051;51.548;14.348;2022-09-12T09:14:13;3.20;;;2.50;;
17850;SDS011;9051;51.548;14.348;2022-09-12T09:17:18;2.50;;;2.30;;
17850;SDS011;9051;51.548;14.348;2022-09-12T09:19:57;2.53;;;2.33;;
17850;SDS011;9051;51.548;14.348;2022-09-12T09:22:37;2.40;;;2.20;;
17850;SDS011;9051;51.548;14.348;2022-09-12T09:25:15;2.40;;;2.20;;
17850;SDS011;9051;51.548;14.348;2022-09-12T09:27:52;2.40;;;2.20;;
17850;SDS011;9051;51.548;14.348;2022-09-12T09:30:30;3.27;;;2.90;;
17850;SDS011;9051;51.548;14.348;2022-09-12T09:33:04;2.80;;;2.60;;
17850;SDS011;9051;51.548;14.348;2022-09-12T09:35:43;3.30;;;2.33;;
17850;SDS011;9051;51.548;14.348;2022-09-12T09:38:21;2.53;;;2.33;;
17850;SDS011;9051;51.548;14.348;2022-09-12T09:40:59;2.90;;;2.40;;
17850;SDS011;9051;51.548;14.348;2022-09-12T09:43:43;2.50;;;2.30;;
17850;SDS011;9051;51.548;14.348;2022-09-12T09:46:15;4.17;;;2.67;;
17850;SDS011;9051;51.548;14.348;2022-09-12T09:48:47;2.67;;;2.47;;
17850;SDS011;9051;51.548;14.348;2022-09-12T09:51:24;3.73;;;2.60;;
17850;SDS011;9051;51.548;14.348;2022-09-12T09:54:00;2.30;;;2.10;;
17850;SDS011;9051;51.548;14.348;2022-09-12T09:56:36;2.30;;;2.10;;
17850;SDS011;9051;51.548;14.348;2022-09-12T09:59:12;2.87;;;2.60;;
17850;SDS011;9051;51.548;14.348;2022-09-12T10:01:49;2.70;;;2.50;;
17850;SDS011;9051;51.548;14.348;2022-09-12T10:04:24;2.80;;;2.60;;
17850;SDS011;9051;51.548;14.348;2022-09-12T10:07:01;3.10;;;2.80;;
17850;SDS011;9051;51.548;14.348;2022-09-12T10:09:35;2.47;;;2.30;;
17850;SDS011;9051;51.548;14.348;2022-09-12T10:12:18;5.20;;;4.70;;
17850;SDS011;9051;51.548;14.348;2022-09-12T10:14:55;4.67;;;4.27;;
17850;SDS011;9051;51.548;14.348;2022-09-12T10:17:30;4.83;;;4.43;;
17850;SDS011;9051;51.548;14.348;2022-09-12T10:23:06;3.70;;;3.40;;
17850;SDS011;9051;51.548;14.348;2022-09-12T10:25:54;4.87;;;3.70;;
17850;SDS011;9051;51.548;14.348;2022-09-12T10:28:30;4.33;;;3.93;;
17850;SDS011;9051;51.548;14.348;2022-09-12T10:31:06;4.43;;;4.07;;
17850;SDS011;9051;51.548;14.348;2022-09-12T10:33:41;4.63;;;4.23;;
17850;SDS011;9051;51.548;14.348;2022-09-12T10:36:20;3.70;;;3.40;;
17850;SDS011;9051;51.548;14.348;2022-09-12T10:38:55;3.93;;;3.63;;
17850;SDS011;9051;51.548;14.348;2022-09-12T10:41:34;4.30;;;3.20;;
17850;SDS011;9051;51.548;14.348;2022-09-12T10:44:13;3.50;;;3.20;;
17850;SDS011;9051;51.548;14.348;2022-09-12T10:46:46;3.90;;;3.20;;
17850;SDS011;9051;51.548;14.348;2022-09-12T10:49:19;4.20;;;3.50;;
17850;SDS011;9051;51.548;14.348;2022-09-12T10:51:57;4.03;;;3.23;;
17850;SDS011;9051;51.548;14.348;2022-09-12T10:54:48;3.50;;;3.20;;
17850;SDS011;9051;51.548;14.348;2022-09-12T10:57:33;3.50;;;3.20;;
17850;SDS011;9051;51.548;14.348;2022-09-12T11:00:24;4.23;;;3.80;;
17850;SDS011;9051;51.548;14.348;2022-09-12T11:03:04;5.73;;;3.60;;
17850;SDS011;9051;51.548;14.348;2022-09-12T11:05:49;5.70;;;3.80;;
17850;SDS011;9051;51.548;14.348;2022-09-12T11:11:27;3.67;;;3.30;;
17850;SDS011;9051;51.548;14.348;2022-09-12T11:14:13;5.73;;;3.33;;
17850;SDS011;9051;51.548;14.348;2022-09-12T11:16:57;4.43;;;3.10;;
17850;SDS011;9051;51.548;14.348;2022-09-12T11:19:49;3.03;;;2.80;;
17850;SDS011;9051;51.548;14.348;2022-09-12T11:22:43;4.23;;;3.20;;
17850;SDS011;9051;51.548;14.348;2022-09-12T11:25:34;3.53;;;3.23;;
17850;SDS011;9051;51.548;14.348;2022-09-12T11:28:18;3.27;;;2.97;;
17850;SDS011;9051;51.548;14.348;2022-09-12T11:31:19;3.00;;;2.80;;
17850;SDS011;9051;51.548;14.348;2022-09-12T11:34:09;3.30;;;3.00;;
17850;SDS011;9051;51.548;14.348;2022-09-12T11:36:43;3.33;;;3.00;;
17850;SDS011;9051;51.548;14.348;2022-09-12T11:39:26;2.08;;;1.90;;
17850;SDS011;9051;51.548;14.348;2022-09-12T11:42:04;2.10;;;1.90;;
17850;SDS011;9051;51.548;14.348;2022-09-12T11:44:48;1.90;;;1.63;;
17850;SDS011;9051;51.548;14.348;2022-09-12T11:47:27;2.22;;;1.80;;
17850;SDS011;9051;51.548;14.348;2022-09-12T11:50:02;2.00;;;1.90;;
17850;SDS011;9051;51.548;14.348;2022-09-12T11:52:43;1.83;;;1.70;;
17850;SDS011;9051;51.548;14.348;2022-09-12T11:55:15;1.77;;;1.67;;
17850;SDS011;9051;51.548;14.348;2022-09-12T11:57:51;2.42;;;1.38;;
17850;SDS011;9051;51.548;14.348;2022-09-12T12:00:29;1.60;;;1.50;;
17850;SDS011;9051;51.548;14.348;2022-09-12T12:03:07;1.30;;;1.30;;
17850;SDS011;9051;51.548;14.348;2022-09-12T12:05:46;1.40;;;1.30;;
17850;SDS011;9051;51.548;14.348;2022-09-12T12:08:24;2.10;;;1.90;;
17850;SDS011;9051;51.548;14.348;2022-09-12T12:10:58;2.60;;;2.40;;
17850;SDS011;9051;51.548;14.348;2022-09-12T12:13:31;2.70;;;2.50;;
17850;SDS011;9051;51.548;14.348;2022-09-12T12:16:11;2.83;;;2.17;;
17850;SDS011;9051;51.548;14.348;2022-09-12T12:18:51;2.72;;;2.53;;
17850;SDS011;9051;51.548;14.348;2022-09-12T12:21:30;2.63;;;2.20;;
17850;SDS011;9051;51.548;14.348;2022-09-12T12:24:12;2.47;;;2.00;;
17850;SDS011;9051;51.548;14.348;2022-09-12T12:26:54;2.58;;;2.38;;
17850;SDS011;9051;51.548;14.348;2022-09-12T12:29:38;2.38;;;2.17;;
17850;SDS011;9051;51.548;14.348;2022-09-12T12:32:25;2.15;;;1.95;;
17850;SDS011;9051;51.548;14.348;2022-09-12T12:47:20;2.10;;;1.38;;
17850;SDS011;9051;51.548;14.348;2022-09-12T12:49:56;1.10;;;1.10;;
17850;SDS011;9051;51.548;14.348;2022-09-12T12:52:32;1.40;;;1.30;;
17850;SDS011;9051;51.548;14.348;2022-09-12T12:55:18;1.88;;;1.30;;
17850;SDS011;9051;51.548;14.348;2022-09-12T12:57:55;1.58;;;1.30;;
17850;SDS011;9051;51.548;14.348;2022-09-12T13:00:30;2.60;;;1.40;;
17850;SDS011;9051;51.548;14.348;2022-09-12T13:03:07;1.98;;;1.25;;
17850;SDS011;9051;51.548;14.348;2022-09-12T13:05:51;1.63;;;1.30;;
17850;SDS011;9051;51.548;14.348;2022-09-12T13:08:29;1.30;;;1.20;;
17850;SDS011;9051;51.548;14.348;2022-09-12T13:11:04;2.28;;;1.60;;
17850;SDS011;9051;51.548;14.348;2022-09-12T13:13:39;1.40;;;1.30;;
17850;SDS011;9051;51.548;14.348;2022-09-12T13:16:27;2.75;;;1.40;;
17850;SDS011;9051;51.548;14.348;2022-09-12T13:19:01;2.78;;;1.30;;
17850;SDS011;9051;51.548;14.348;2022-09-12T13:21:38;1.50;;;1.40;;
17850;SDS011;9051;51.548;14.348;2022-09-12T13:24:24;1.40;;;1.30;;
17850;SDS011;9051;51.548;14.348;2022-09-12T13:26:56;2.10;;;1.50;;
17850;SDS011;9051;51.548;14.348;2022-09-12T13:29:29;3.13;;;1.40;;
17850;SDS011;9051;51.548;14.348;2022-09-12T13:32:02;2.40;;;1.40;;
17850;SDS011;9051;51.548;14.348;2022-09-12T13:34:34;1.15;;;1.10;;
17850;SDS011;9051;51.548;14.348;2022-09-12T13:37:31;1.48;;;1.38;;
17850;SDS011;9051;51.548;14.348;2022-09-12T13:40:20;1.40;;;1.30;;
17850;SDS011;9051;51.548;14.348;2022-09-12T13:43:07;2.15;;;1.25;;
17850;SDS011;9051;51.548;14.348;2022-09-12T13:45:44;1.35;;;1.25;;
17850;SDS011;9051;51.548;14.348;2022-09-12T13:48:18;2.15;;;1.20;;
17850;SDS011;9051;51.548;14.348;2022-09-12T13:50:54;1.60;;;1.30;;
17850;SDS011;9051;51.548;14.348;2022-09-12T13:53:31;1.40;;;1.30;;
17850;SDS011;9051;51.548;14.348;2022-09-12T13:56:14;1.27;;;1.20;;
17850;SDS011;9051;51.548;14.348;2022-09-12T13:58:52;1.48;;;1.38;;
17850;SDS011;9051;51.548;14.348;2022-09-12T14:01:36;1.33;;;1.23;;
17850;SDS011;9051;51.548;14.348;2022-09-12T14:04:13;1.85;;;1.70;;
17850;SDS011;9051;51.548;14.348;2022-09-12T14:07:08;1.63;;;1.40;;
17850;SDS011;9051;51.548;14.348;2022-09-12T14:09:45;1.50;;;1.40;;
17850;SDS011;9051;51.548;14.348;2022-09-12T14:12:26;1.20;;;1.20;;
17850;SDS011;9051;51.548;14.348;2022-09-12T14:15:01;2.15;;;1.40;;
17850;SDS011;9051;51.548;14.348;2022-09-12T14:17:34;1.40;;;1.30;;
17850;SDS011;9051;51.548;14.348;2022-09-12T14:20:13;1.40;;;1.30;;
17850;SDS011;9051;51.548;14.348;2022-09-12T14:22:48;1.58;;;1.48;;
17850;SDS011;9051;51.548;14.348;2022-09-12T14:25:23;2.00;;;1.35;;
17850;SDS011;9051;51.548;14.348;2022-09-12T14:27:56;1.30;;;1.25;;
17850;SDS011;9051;51.548;14.348;2022-09-12T14:30:29;1.65;;;1.55;;
17850;SDS011;9051;51.548;14.348;2022-09-12T14:33:03;1.50;;;1.40;;
17850;SDS011;9051;51.548;14.348;2022-09-12T14:35:49;1.58;;;1.48;;
17850;SDS011;9051;51.548;14.348;2022-09-12T14:38:23;1.38;;;1.27;;
17850;SDS011;9051;51.548;14.348;2022-09-12T14:41:04;1.40;;;1.30;;
17850;SDS011;9051;51.548;14.348;2022-09-12T14:43:39;1.48;;;1.38;;
17850;SDS011;9051;51.548;14.348;2022-09-12T14:46:16;1.50;;;1.40;;
17850;SDS011;9051;51.548;14.348;2022-09-12T14:48:50;1.67;;;1.45;;
17850;SDS011;9051;51.548;14.348;2022-09-12T14:51:30;3.90;;;1.42;;
17850;SDS011;9051;51.548;14.348;2022-09-12T14:54:04;1.50;;;1.40;;
17850;SDS011;9051;51.548;14.348;2022-09-12T14:56:42;1.70;;;1.45;;
17850;SDS011;9051;51.548;14.348;2022-09-12T14:59:28;1.35;;;1.25;;
17850;SDS011;9051;51.548;14.348;2022-09-12T15:02:16;1.73;;;1.48;;
17850;SDS011;9051;51.548;14.348;2022-09-12T15:04:52;2.45;;;1.50;;
17850;SDS011;9051;51.548;14.348;2022-09-12T15:07:28;1.33;;;1.30;;
17850;SDS011;9051;51.548;14.348;2022-09-12T15:10:04;1.60;;;1.50;;
17850;SDS011;9051;51.548;14.348;2022-09-12T15:12:46;1.80;;;1.70;;
17850;SDS011;9051;51.548;14.348;2022-09-12T15:15:19;3.78;;;2.83;;
17850;SDS011;9051;51.548;14.348;2022-09-12T15:17:51;2.35;;;1.80;;
17850;SDS011;9051;51.548;14.348;2022-09-12T15:20:23;2.33;;;1.45;;
17850;SDS011;9051;51.548;14.348;2022-09-12T15:22:56;2.13;;;1.30;;
17850;SDS011;9051;51.548;14.348;2022-09-12T15:25:28;1.75;;;1.50;;
17850;SDS011;9051;51.548;14.348;2022-09-12T15:28:04;1.60;;;1.50;;
17850;SDS011;9051;51.548;14.348;2022-09-12T15:30:43;1.45;;;1.30;;
17850;SDS011;9051;51.548;14.348;2022-09-12T15:33:17;1.88;;;1.50;;
17850;SDS011;9051;51.548;14.348;2022-09-12T15:35:57;1.40;;;1.30;;
17850;SDS011;9051;51.548;14.348;2022-09-12T15:38:30;1.52;;;1.45;;
17850;SDS011;9051;51.548;14.348;2022-09-12T15:41:09;1.50;;;1.40;;
17850;SDS011;9051;51.548;14.348;2022-09-12T15:43:45;1.50;;;1.40;;
17850;SDS011;9051;51.548;14.348;2022-09-12T15:46:17;1.55;;;1.45;;
17850;SDS011;9051;51.548;14.348;2022-09-12T15:48:50;1.60;;;1.50;;
17850;SDS011;9051;51.548;14.348;2022-09-12T15:51:22;1.40;;;1.30;;
17850;SDS011;9051;51.548;14.348;2022-09-12T15:53:54;1.42;;;1.33;;
17850;SDS011;9051;51.548;14.348;2022-09-12T15:56:26;2.35;;;1.42;;
17850;SDS011;9051;51.548;14.348;2022-09-12T15:58:59;1.52;;;1.42;;